createdAt,value
2019-04-07T00:00:21.039Z,66.31
2019-04-07T00:01:20.734Z,66.31
2019-04-07T00:02:20.572Z,66.41
2019-04-07T00:03:20.856Z,66.31
2019-04-07T00:04:20.573Z,66.41
2019-04-07T00:05:20.757Z,66.51
2019-04-07T00:06:20.558Z,66.41
2019-04-07T00:07:20.534Z,66.41
2019-04-07T00:08:20.643Z,66.41
2019-04-07T00:09:20.574Z,66.31
2019-04-07T00:10:20.483Z,66.31
2019-04-07T00:11:20.563Z,66.41
2019-04-07T00:12:20.520Z,66.41
2019-04-07T00:13:20.453Z,66.51
2019-04-07T00:14:20.697Z,66.41
2019-04-07T00:15:20.848Z,66.41
2019-04-07T00:16:20.422Z,66.41
2019-04-07T00:17:20.659Z,66.31
2019-04-07T00:18:20.460Z,66.20
2019-04-07T00:19:20.881Z,66.10
2019-04-07T00:20:20.841Z,66.31
2019-04-07T00:21:20.781Z,66.31
2019-04-07T00:22:20.854Z,66.41
2019-04-07T00:23:20.403Z,66.41
2019-04-07T00:24:20.341Z,66.51
2019-04-07T00:25:20.892Z,66.51
2019-04-07T00:26:20.382Z,66.41
2019-04-07T00:27:20.314Z,66.41
2019-04-07T00:28:20.512Z,66.31
2019-04-07T00:29:20.284Z,66.07
2019-04-07T00:30:20.272Z,66.10
2019-04-07T00:31:20.525Z,66.20
2019-04-07T00:32:20.253Z,66.41
2019-04-07T00:33:20.697Z,66.51
2019-04-07T00:34:20.570Z,66.51
2019-04-07T00:35:26.822Z,66.51
2019-04-07T00:36:21.868Z,66.51
2019-04-07T00:37:20.702Z,66.41
2019-04-07T00:38:20.287Z,66.41
2019-04-07T00:39:20.813Z,66.31
2019-04-07T00:40:20.762Z,66.41
2019-04-07T00:41:20.170Z,66.72
2019-04-07T00:42:20.153Z,66.96
2019-04-07T00:43:20.131Z,67.13
2019-04-07T00:44:20.173Z,67.06
2019-04-07T00:45:20.632Z,67.16
2019-04-07T00:46:21.311Z,67.16
2019-04-07T00:47:20.726Z,67.16
2019-04-07T00:48:20.081Z,67.26
2019-04-07T00:49:20.604Z,67.26
2019-04-07T00:50:20.053Z,67.36
2019-04-07T00:51:20.670Z,67.13
2019-04-07T00:52:20.563Z,67.13
2019-04-07T00:53:20.116Z,67.13
2019-04-07T00:54:20.451Z,66.93
2019-04-07T00:55:20.079Z,66.93
2019-04-07T00:56:20.517Z,67.13
2019-04-07T00:57:19.992Z,67.03
2019-04-07T00:58:19.983Z,66.82
2019-04-07T00:59:19.951Z,67.03
2019-04-07T01:00:20.369Z,67.03
2019-04-07T01:01:20.640Z,67.03
2019-04-07T01:02:19.920Z,67.03
2019-04-07T01:03:19.961Z,66.93
2019-04-07T01:04:19.958Z,66.96
2019-04-07T01:05:20.541Z,67.06
2019-04-07T01:06:19.922Z,67.16
2019-04-07T01:07:20.150Z,67.26
2019-04-07T01:08:19.866Z,67.26
2019-04-07T01:09:19.934Z,67.16
2019-04-07T01:10:20.466Z,67.06
2019-04-07T01:11:20.085Z,66.96
2019-04-07T01:12:20.358Z,67.06
2019-04-07T01:13:19.897Z,67.06
2019-04-07T01:14:19.831Z,67.16
2019-04-07T01:15:19.842Z,67.16
2019-04-07T01:16:19.942Z,67.06
2019-04-07T01:17:19.774Z,67.06
2019-04-07T01:18:19.760Z,67.16
2019-04-07T01:19:20.027Z,67.26
2019-04-07T01:20:19.802Z,67.36
2019-04-07T01:21:20.297Z,67.47
2019-04-07T01:22:19.701Z,67.47
2019-04-07T01:23:20.295Z,67.36
2019-04-07T01:24:19.896Z,67.47
2019-04-07T01:25:20.307Z,67.68
2019-04-07T01:26:19.660Z,67.68
2019-04-07T01:27:20.354Z,67.57
2019-04-07T01:28:19.813Z,67.57
2019-04-07T01:29:20.014Z,67.57
2019-04-07T01:30:19.952Z,67.57
2019-04-07T01:31:19.776Z,67.68
2019-04-07T01:32:20.264Z,67.68
2019-04-07T01:33:19.606Z,67.68
2019-04-07T01:34:19.728Z,67.78
2019-04-07T01:35:20.235Z,67.78
2019-04-07T01:36:19.570Z,67.88
2019-04-07T01:37:19.738Z,67.88
2019-04-07T01:38:20.389Z,67.98
2019-04-07T01:39:19.521Z,67.98
2019-04-07T01:40:19.920Z,67.47
2019-04-07T01:41:19.523Z,67.40
2019-04-07T01:42:20.181Z,67.81
2019-04-07T01:43:19.506Z,68.02
2019-04-07T01:44:20.137Z,68.15
2019-04-07T01:45:19.502Z,68.35
2019-04-07T01:46:19.440Z,68.46
2019-04-07T01:47:20.048Z,68.56
2019-04-07T01:48:19.451Z,68.56
2019-04-07T01:49:19.453Z,68.46
2019-04-07T01:50:19.494Z,68.56
2019-04-07T01:51:19.915Z,68.98
2019-04-07T01:52:19.593Z,68.56
2019-04-07T01:53:20.032Z,68.56
2019-04-07T01:54:19.353Z,68.87
2019-04-07T01:55:19.400Z,69.18
2019-04-07T01:56:19.328Z,69.21
2019-04-07T01:57:20.055Z,69.42
2019-04-07T01:58:20.090Z,69.31
2019-04-07T01:59:19.809Z,69.52
2019-04-07T02:00:19.325Z,69.42
2019-04-07T02:01:19.324Z,69.42
2019-04-07T02:02:19.263Z,69.62
2019-04-07T02:03:19.586Z,69.73
2019-04-07T02:04:19.262Z,69.73
2019-04-07T02:05:19.875Z,69.62
2019-04-07T02:06:19.743Z,69.73
2019-04-07T02:07:19.541Z,70.07
2019-04-07T02:08:19.876Z,70.28
2019-04-07T02:09:19.189Z,70.28
2019-04-07T02:10:19.697Z,70.37
2019-04-07T02:11:19.202Z,70.68
2019-04-07T02:12:19.849Z,70.79
2019-04-07T02:13:19.778Z,70.89
2019-04-07T02:14:19.135Z,70.68
2019-04-07T02:15:19.176Z,70.48
2019-04-07T02:16:19.228Z,70.68
2019-04-07T02:17:19.884Z,70.68
2019-04-07T02:18:19.123Z,70.58
2019-04-07T02:19:19.104Z,70.37
2019-04-07T02:20:19.089Z,70.37
2019-04-07T02:21:19.654Z,70.24
2019-04-07T02:22:19.100Z,70.14
2019-04-07T02:23:19.113Z,70.17
2019-04-07T02:24:19.277Z,70.48
2019-04-07T02:25:19.803Z,70.79
2019-04-07T02:26:19.958Z,71.13
2019-04-07T02:27:19.403Z,71.23
2019-04-07T02:28:18.998Z,71.10
2019-04-07T02:29:19.238Z,71.10
2019-04-07T02:30:19.768Z,71.10
2019-04-07T02:31:19.178Z,71.23
2019-04-07T02:32:18.940Z,71.55
2019-04-07T02:33:19.187Z,71.55
2019-04-07T02:34:19.660Z,71.55
2019-04-07T02:35:18.942Z,71.30
2019-04-07T02:36:26.168Z,71.41
2019-04-07T02:37:20.594Z,71.41
2019-04-07T02:38:19.244Z,71.30
2019-04-07T02:39:19.518Z,71.30
2019-04-07T02:40:19.150Z,71.30
2019-04-07T02:41:19.800Z,71.10
2019-04-07T02:42:19.026Z,71.00
2019-04-07T02:43:19.453Z,71.00
2019-04-07T02:44:18.959Z,71.00
2019-04-07T02:45:19.760Z,70.89
2019-04-07T02:46:18.831Z,70.89
2019-04-07T02:47:18.775Z,70.79
2019-04-07T02:48:18.773Z,70.79
2019-04-07T02:49:18.795Z,71.03
2019-04-07T02:50:18.756Z,71.55
2019-04-07T02:51:18.739Z,71.85
2019-04-07T02:52:18.727Z,71.95
2019-04-07T02:53:19.470Z,71.85
2019-04-07T02:54:19.405Z,71.85
2019-04-07T02:55:19.493Z,71.85
2019-04-07T02:56:18.718Z,71.85
2019-04-07T02:57:18.981Z,71.85
2019-04-07T02:58:18.816Z,71.75
2019-04-07T02:59:19.725Z,71.44
2019-04-07T03:00:18.670Z,71.44
2019-04-07T03:01:18.650Z,71.55
2019-04-07T03:02:18.620Z,71.75
2019-04-07T03:03:18.835Z,71.85
2019-04-07T03:04:19.031Z,71.75
2019-04-07T03:05:18.588Z,71.55
2019-04-07T03:06:33.987Z,71.44
2019-04-07T03:07:20.061Z,71.44
2019-04-07T03:08:18.644Z,71.34
2019-04-07T03:09:18.757Z,71.23
2019-04-07T03:10:18.678Z,71.55
2019-04-07T03:11:18.558Z,71.64
2019-04-07T03:12:19.096Z,71.55
2019-04-07T03:13:18.496Z,71.75
2019-04-07T03:14:18.496Z,71.85
2019-04-07T03:15:19.307Z,71.85
2019-04-07T03:16:19.437Z,71.75
2019-04-07T03:17:18.449Z,71.64
2019-04-07T03:18:18.476Z,71.75
2019-04-07T03:19:19.307Z,71.34
2019-04-07T03:20:18.729Z,71.44
2019-04-07T03:21:19.628Z,71.89
2019-04-07T03:22:18.413Z,71.89
2019-04-07T03:23:18.659Z,71.85
2019-04-07T03:24:19.300Z,71.89
2019-04-07T03:25:18.510Z,72.09
2019-04-07T03:26:18.509Z,72.30
2019-04-07T03:27:18.335Z,72.50
2019-04-07T03:28:18.355Z,72.40
2019-04-07T03:29:18.330Z,72.40
2019-04-07T03:30:20.060Z,71.89
2019-04-07T03:31:20.009Z,71.89
2019-04-07T03:32:19.849Z,71.95
2019-04-07T03:33:21.744Z,71.95
2019-04-07T03:34:18.945Z,71.85
2019-04-07T03:35:20.921Z,71.75
2019-04-07T03:36:21.305Z,71.55
2019-04-07T03:37:31.300Z,71.23
2019-04-07T03:38:19.288Z,71.03
2019-04-07T03:39:18.894Z,70.92
2019-04-07T03:40:18.420Z,70.79
2019-04-07T03:41:18.312Z,70.58
2019-04-07T03:42:18.207Z,70.48
2019-04-07T03:43:18.158Z,70.48
2019-04-07T03:44:18.508Z,70.37
2019-04-07T03:45:18.762Z,70.58
2019-04-07T03:46:18.403Z,70.68
2019-04-07T03:47:18.411Z,70.68
2019-04-07T03:48:18.154Z,70.58
2019-04-07T03:49:18.768Z,70.17
2019-04-07T03:50:18.628Z,70.17
2019-04-07T03:51:18.970Z,69.96
2019-04-07T03:52:19.246Z,70.07
2019-04-07T03:53:18.108Z,70.31
2019-04-07T03:54:18.391Z,70.41
2019-04-07T03:55:18.033Z,70.51
2019-04-07T03:56:18.136Z,70.62
2019-04-07T03:57:18.008Z,70.68
2019-04-07T03:58:18.140Z,70.68
2019-04-07T03:59:18.313Z,70.37
2019-04-07T04:00:18.705Z,70.17
2019-04-07T04:01:18.031Z,69.96
2019-04-07T04:02:17.958Z,70.10
2019-04-07T04:03:17.947Z,70.62
2019-04-07T04:04:18.890Z,70.96
2019-04-07T04:05:18.886Z,71.37
2019-04-07T04:06:17.952Z,71.47
2019-04-07T04:07:29.379Z,71.47
2019-04-07T04:08:18.918Z,71.26
2019-04-07T04:09:17.907Z,71.13
2019-04-07T04:10:17.888Z,71.03
2019-04-07T04:11:18.198Z,70.82
2019-04-07T04:12:17.900Z,70.92
2019-04-07T04:13:17.847Z,70.82
2019-04-07T04:14:18.370Z,70.72
2019-04-07T04:15:18.401Z,70.72
2019-04-07T04:16:18.104Z,70.41
2019-04-07T04:17:18.321Z,70.41
2019-04-07T04:18:18.405Z,70.82
2019-04-07T04:19:18.795Z,71.03
2019-04-07T04:20:17.779Z,71.23
2019-04-07T04:21:17.854Z,71.13
2019-04-07T04:22:18.569Z,71.13
2019-04-07T04:23:17.882Z,71.13
2019-04-07T04:24:18.517Z,70.92
2019-04-07T04:25:17.746Z,70.92
2019-04-07T04:26:17.730Z,71.85
2019-04-07T04:27:17.686Z,73.81
2019-04-07T04:28:18.094Z,72.54
2019-04-07T04:29:17.661Z,71.72
2019-04-07T04:30:17.683Z,72.03
2019-04-07T04:31:17.928Z,72.96
2019-04-07T04:32:17.623Z,72.03
2019-04-07T04:33:18.040Z,71.06
2019-04-07T04:34:17.602Z,72.61
2019-04-07T04:35:17.659Z,70.65
2019-04-07T04:36:17.826Z,70.37
2019-04-07T04:37:33.266Z,71.10
2019-04-07T04:38:18.562Z,72.13
2019-04-07T04:39:19.712Z,71.41
2019-04-07T04:40:17.813Z,70.92
2019-04-07T04:41:17.541Z,71.03
2019-04-07T04:42:18.356Z,72.58
2019-04-07T04:43:17.839Z,72.16
2019-04-07T04:44:18.457Z,72.54
2019-04-07T04:45:17.905Z,71.10
2019-04-07T04:46:18.549Z,70.68
2019-04-07T04:47:17.473Z,71.03
2019-04-07T04:48:17.593Z,71.78
2019-04-07T04:49:17.465Z,72.81
2019-04-07T04:50:17.423Z,73.22
2019-04-07T04:51:18.328Z,73.33
2019-04-07T04:52:18.042Z,73.02
2019-04-07T04:53:18.447Z,73.02
2019-04-07T04:54:17.434Z,73.12
2019-04-07T04:55:17.372Z,72.30
2019-04-07T04:56:17.393Z,71.99
2019-04-07T04:57:17.791Z,72.30
2019-04-07T04:58:17.527Z,72.33
2019-04-07T04:59:18.156Z,72.85
2019-04-07T05:00:18.495Z,73.16
2019-04-07T05:01:17.555Z,73.47
2019-04-07T05:02:17.314Z,73.68
2019-04-07T05:03:18.179Z,73.68
2019-04-07T05:04:17.479Z,73.68
2019-04-07T05:05:18.104Z,73.47
2019-04-07T05:06:17.997Z,73.47
2019-04-07T05:07:17.246Z,73.36
2019-04-07T05:08:17.587Z,73.36
2019-04-07T05:09:17.997Z,73.26
2019-04-07T05:10:17.278Z,73.36
2019-04-07T05:11:17.504Z,73.26
2019-04-07T05:12:17.569Z,73.05
2019-04-07T05:13:17.203Z,72.81
2019-04-07T05:14:17.177Z,72.81
2019-04-07T05:15:17.552Z,72.61
2019-04-07T05:16:17.571Z,72.40
2019-04-07T05:17:17.370Z,72.88
2019-04-07T05:18:17.444Z,72.27
2019-04-07T05:19:17.127Z,71.72
2019-04-07T05:20:17.305Z,70.96
2019-04-07T05:21:17.088Z,70.24
2019-04-07T05:22:17.868Z,70.34
2019-04-07T05:23:18.004Z,70.04
2019-04-07T05:24:17.067Z,70.14
2019-04-07T05:25:17.381Z,70.04
2019-04-07T05:26:17.040Z,69.93
2019-04-07T05:27:17.429Z,70.24
2019-04-07T05:28:17.079Z,70.04
2019-04-07T05:29:17.062Z,70.48
2019-04-07T05:30:16.998Z,70.58
2019-04-07T05:31:17.727Z,70.68
2019-04-07T05:32:17.001Z,70.89
2019-04-07T05:33:16.967Z,70.86
2019-04-07T05:34:20.518Z,70.34
2019-04-07T05:35:18.715Z,70.14
2019-04-07T05:36:16.940Z,69.79
2019-04-07T05:37:17.626Z,69.59
2019-04-07T05:38:16.935Z,69.79
2019-04-07T05:39:17.473Z,69.76
2019-04-07T05:40:16.897Z,69.56
2019-04-07T05:41:17.148Z,69.15
2019-04-07T05:42:17.499Z,69.12
2019-04-07T05:43:17.382Z,68.80
2019-04-07T05:44:17.682Z,68.60
2019-04-07T05:45:17.286Z,68.16
2019-04-07T05:46:17.645Z,68.05
2019-04-07T05:47:16.836Z,67.95
2019-04-07T05:48:18.523Z,67.95
2019-04-07T05:49:17.729Z,67.75
2019-04-07T05:50:16.799Z,67.44
2019-04-07T05:51:16.759Z,67.41
2019-04-07T05:52:17.194Z,67.20
2019-04-07T05:53:17.029Z,67.30
2019-04-07T05:54:18.984Z,67.92
2019-04-07T05:55:20.631Z,68.40
2019-04-07T05:56:17.715Z,67.38
2019-04-07T05:57:16.734Z,66.52
2019-04-07T05:58:16.699Z,66.01
2019-04-07T05:59:16.679Z,65.91
2019-04-07T06:00:17.056Z,65.91
2019-04-07T06:01:21.731Z,66.01
2019-04-07T06:02:17.836Z,66.22
2019-04-07T06:03:16.718Z,66.39
2019-04-07T06:04:18.379Z,65.26
2019-04-07T06:05:17.708Z,64.64
2019-04-07T06:06:19.100Z,64.44
2019-04-07T06:07:16.598Z,64.31
2019-04-07T06:08:24.700Z,63.90
2019-04-07T06:09:18.920Z,63.49
2019-04-07T06:10:16.739Z,62.87
2019-04-07T06:11:16.961Z,62.98
2019-04-07T06:12:17.097Z,63.05
2019-04-07T06:13:17.498Z,62.74
2019-04-07T06:14:16.984Z,62.19
2019-04-07T06:15:20.961Z,61.69
2019-04-07T06:16:19.961Z,61.69
2019-04-07T06:17:16.497Z,61.27
2019-04-07T06:18:16.460Z,61.58
2019-04-07T06:19:17.039Z,61.69
2019-04-07T06:20:17.793Z,61.15
2019-04-07T06:21:17.258Z,60.74
2019-04-07T06:22:19.867Z,60.33
2019-04-07T06:23:16.999Z,60.30
2019-04-07T06:24:16.908Z,60.50
2019-04-07T06:25:16.621Z,60.06
2019-04-07T06:26:17.330Z,59.01
2019-04-07T06:27:17.842Z,58.81
2019-04-07T06:28:18.820Z,58.70
2019-04-07T06:29:17.017Z,58.68
2019-04-07T06:30:16.603Z,58.50
2019-04-07T06:31:16.348Z,58.50
2019-04-07T06:32:16.621Z,58.78
2019-04-07T06:33:16.313Z,58.70
2019-04-07T06:34:16.297Z,58.37
2019-04-07T06:35:16.953Z,57.43
2019-04-07T06:36:18.752Z,56.35
2019-04-07T06:37:16.257Z,55.20
2019-04-07T06:38:16.640Z,55.07
2019-04-07T06:39:18.188Z,53.80
2019-04-07T06:40:20.369Z,52.66
2019-04-07T06:41:17.422Z,51.28
2019-04-07T06:42:16.257Z,50.93
2019-04-07T06:43:16.920Z,49.79
2019-04-07T06:44:19.881Z,49.71
2019-04-07T06:45:20.618Z,51.06
2019-04-07T06:46:16.229Z,51.59
2019-04-07T06:47:17.744Z,52.00
2019-04-07T06:48:16.623Z,52.73
2019-04-07T06:49:16.117Z,53.37
2019-04-07T06:50:16.892Z,53.31
2019-04-07T06:51:16.151Z,53.72
2019-04-07T06:52:16.091Z,53.64
2019-04-07T06:53:18.682Z,54.87
2019-04-07T06:54:21.030Z,55.20
2019-04-07T06:55:17.079Z,55.18
2019-04-07T06:56:16.561Z,54.77
2019-04-07T06:57:16.043Z,54.94
2019-04-07T06:58:16.398Z,54.74
2019-04-07T06:59:16.573Z,53.83
2019-04-07T07:00:17.437Z,54.24
2019-04-07T07:01:16.585Z,53.50
2019-04-07T07:02:16.017Z,53.47
2019-04-07T07:03:16.571Z,52.43
2019-04-07T07:04:15.982Z,52.33
2019-04-07T07:05:16.372Z,52.12
2019-04-07T07:06:17.346Z,52.66
2019-04-07T07:07:16.738Z,52.55
2019-04-07T07:08:19.361Z,53.16
2019-04-07T07:09:16.919Z,53.39
2019-04-07T07:10:26.152Z,53.09
2019-04-07T07:11:27.229Z,52.88
2019-04-07T07:12:22.573Z,53.85
2019-04-07T07:13:28.478Z,54.24
2019-04-07T07:14:31.357Z,54.00
2019-04-07T07:15:16.837Z,53.50
2019-04-07T07:16:17.137Z,52.63
2019-04-07T07:17:18.293Z,51.16
2019-04-07T07:18:20.068Z,50.32
2019-04-07T07:19:16.806Z,50.62
2019-04-07T07:20:15.831Z,49.61
2019-04-07T07:21:16.575Z,49.91
2019-04-07T07:22:17.156Z,50.52
2019-04-07T07:23:15.847Z,50.52
2019-04-07T07:24:18.495Z,50.12
2019-04-07T07:25:17.013Z,49.48
2019-04-07T07:26:17.159Z,49.13
2019-04-07T07:27:16.400Z,47.99
2019-04-07T07:28:16.165Z,46.94
2019-04-07T07:29:18.064Z,45.35
2019-04-07T07:30:18.367Z,44.60
2019-04-07T07:31:16.479Z,44.90
2019-04-07T07:32:15.912Z,44.27
2019-04-07T07:33:15.731Z,43.75
2019-04-07T07:34:16.392Z,43.20
2019-04-07T07:35:16.465Z,41.35
2019-04-07T07:36:18.350Z,40.50
2019-04-07T07:37:16.668Z,40.28
2019-04-07T07:38:15.615Z,39.45
2019-04-07T07:39:15.595Z,38.11
2019-04-07T07:40:18.049Z,37.61
2019-04-07T07:41:19.202Z,38.71
2019-04-07T07:42:19.092Z,38.81
2019-04-07T07:43:16.581Z,38.42
2019-04-07T07:44:15.622Z,38.71
2019-04-07T07:45:15.664Z,38.01
2019-04-07T07:46:18.176Z,37.91
2019-04-07T07:47:17.627Z,37.51
2019-04-07T07:48:16.314Z,37.93
2019-04-07T07:49:15.759Z,38.03
2019-04-07T07:50:15.462Z,38.23
2019-04-07T07:51:16.362Z,38.93
2019-04-07T07:52:18.712Z,39.54
2019-04-07T07:53:16.893Z,38.93
2019-04-07T07:54:16.145Z,39.05
2019-04-07T07:55:15.519Z,40.28
2019-04-07T07:56:16.044Z,39.65
2019-04-07T07:57:16.036Z,38.65
2019-04-07T07:58:15.769Z,37.74
2019-04-07T07:59:15.403Z,38.77
2019-04-07T08:00:15.633Z,39.17
2019-04-07T08:01:15.932Z,38.75
2019-04-07T08:02:19.442Z,39.25
2019-04-07T08:03:15.583Z,39.15
2019-04-07T08:04:16.114Z,39.03
2019-04-07T08:05:16.011Z,39.03
2019-04-07T08:06:16.041Z,40.58
2019-04-07T08:07:16.372Z,39.88
2019-04-07T08:08:16.346Z,39.58
2019-04-07T08:09:18.683Z,39.17
2019-04-07T08:10:16.950Z,39.76
2019-04-07T08:11:16.693Z,39.15
2019-04-07T08:12:15.275Z,38.75
2019-04-07T08:13:15.611Z,39.56
2019-04-07T08:14:18.069Z,39.58
2019-04-07T08:15:15.267Z,40.00
2019-04-07T08:16:15.235Z,40.38
2019-04-07T08:17:15.178Z,38.75
2019-04-07T08:18:15.727Z,38.95
2019-04-07T08:19:15.297Z,39.36
2019-04-07T08:20:15.327Z,39.56
2019-04-07T08:21:18.455Z,39.05
2019-04-07T08:22:26.592Z,39.07
2019-04-07T08:23:16.126Z,40.30
2019-04-07T08:24:17.671Z,40.28
2019-04-07T08:25:15.348Z,39.25
2019-04-07T08:26:15.847Z,39.37
2019-04-07T08:27:15.103Z,40.62
2019-04-07T08:28:15.723Z,41.02
2019-04-07T08:29:15.551Z,41.05
2019-04-07T08:30:15.029Z,42.29
2019-04-07T08:31:17.730Z,42.40
2019-04-07T08:32:16.550Z,41.55
2019-04-07T08:33:15.859Z,41.00
2019-04-07T08:34:14.991Z,40.48
2019-04-07T08:35:15.380Z,39.34
2019-04-07T08:36:15.038Z,39.32
2019-04-07T08:37:15.464Z,38.71
2019-04-07T08:38:19.218Z,38.90
2019-04-07T08:39:22.855Z,38.28
2019-04-07T08:40:16.340Z,37.55
2019-04-07T08:41:15.877Z,36.21
2019-04-07T08:42:18.550Z,35.69
2019-04-07T08:43:14.932Z,36.70
2019-04-07T08:44:15.006Z,35.69
2019-04-07T08:45:15.538Z,35.30
2019-04-07T08:46:15.311Z,35.82
2019-04-07T08:47:20.765Z,36.30
2019-04-07T08:48:18.262Z,34.91
2019-04-07T08:49:14.824Z,35.41
2019-04-07T08:50:15.179Z,35.01
2019-04-07T08:51:14.862Z,36.11
2019-04-07T08:52:15.274Z,36.61
2019-04-07T08:53:14.840Z,37.39
2019-04-07T08:54:16.850Z,38.73
2019-04-07T08:55:15.052Z,38.03
2019-04-07T08:56:15.414Z,38.71
2019-04-07T08:57:15.266Z,37.69
2019-04-07T08:58:25.141Z,37.99
2019-04-07T08:59:16.992Z,38.25
2019-04-07T09:00:17.311Z,40.64
2019-04-07T09:01:17.355Z,41.27
2019-04-07T09:02:16.227Z,42.07
2019-04-07T09:03:15.970Z,42.07
2019-04-07T09:04:16.497Z,41.55
2019-04-07T09:05:14.649Z,41.55
2019-04-07T09:06:14.638Z,40.70
2019-04-07T09:07:15.386Z,40.18
2019-04-07T09:08:14.945Z,38.62
2019-04-07T09:09:14.636Z,38.58
2019-04-07T09:10:18.345Z,38.04
2019-04-07T09:11:14.728Z,35.28
2019-04-07T09:12:15.230Z,34.11
2019-04-07T09:13:14.685Z,33.04
2019-04-07T09:14:16.014Z,32.22
2019-04-07T09:15:14.547Z,30.92
2019-04-07T09:16:16.186Z,33.31
2019-04-07T09:17:14.929Z,33.03
2019-04-07T09:18:16.048Z,34.36
2019-04-07T09:19:14.969Z,35.50
2019-04-07T09:20:14.701Z,36.65
2019-04-07T09:21:15.641Z,36.99
2019-04-07T09:22:14.540Z,37.73
2019-04-07T09:23:14.691Z,39.05
2019-04-07T09:24:15.051Z,39.68
2019-04-07T09:25:14.465Z,39.17
2019-04-07T09:26:15.066Z,39.51
2019-04-07T09:27:18.576Z,40.03
2019-04-07T09:28:15.401Z,41.65
2019-04-07T09:29:15.022Z,41.75
2019-04-07T09:30:14.369Z,41.67
2019-04-07T09:31:14.429Z,42.98
2019-04-07T09:32:14.393Z,41.06
2019-04-07T09:33:14.853Z,41.25
2019-04-07T09:34:18.282Z,40.56
2019-04-07T09:35:15.576Z,41.71
2019-04-07T09:36:14.340Z,43.14
2019-04-07T09:37:14.318Z,43.14
2019-04-07T09:38:14.417Z,43.24
2019-04-07T09:39:14.477Z,42.84
2019-04-07T09:40:17.192Z,43.37
2019-04-07T09:41:16.487Z,44.07
2019-04-07T09:42:15.952Z,44.15
2019-04-07T09:43:17.557Z,44.13
2019-04-07T09:44:14.419Z,44.03
2019-04-07T09:45:14.222Z,44.01
2019-04-07T09:46:14.739Z,43.71
2019-04-07T09:47:16.447Z,43.99
2019-04-07T09:48:17.710Z,42.78
2019-04-07T09:49:15.161Z,43.26
2019-04-07T09:50:14.200Z,41.85
2019-04-07T09:51:14.169Z,41.97
2019-04-07T09:52:16.075Z,42.58
2019-04-07T09:53:17.942Z,43.08
2019-04-07T09:54:14.898Z,43.08
2019-04-07T09:55:14.365Z,42.19
2019-04-07T09:56:14.173Z,43.24
2019-04-07T09:57:14.217Z,43.67
2019-04-07T09:58:14.830Z,43.57
2019-04-07T09:59:16.976Z,44.07
2019-04-07T10:00:15.942Z,44.09
2019-04-07T10:01:18.920Z,45.31
2019-04-07T10:02:15.626Z,44.29
2019-04-07T10:03:16.050Z,44.70
2019-04-07T10:04:14.012Z,45.31
2019-04-07T10:05:14.012Z,45.18
2019-04-07T10:06:14.014Z,43.95
2019-04-07T10:07:15.345Z,44.05
2019-04-07T10:08:14.812Z,43.93
2019-04-07T10:09:14.538Z,44.03
2019-04-07T10:10:14.876Z,43.43
2019-04-07T10:11:14.685Z,44.64
2019-04-07T10:12:14.033Z,44.13
2019-04-07T10:13:14.611Z,44.96
2019-04-07T10:14:13.963Z,44.54
2019-04-07T10:15:14.051Z,44.43
2019-04-07T10:16:14.874Z,42.72
2019-04-07T10:17:14.365Z,43.55
2019-04-07T10:18:14.216Z,44.48
2019-04-07T10:19:14.128Z,46.40
2019-04-07T10:20:14.362Z,45.69
2019-04-07T10:21:14.306Z,45.69
2019-04-07T10:22:13.986Z,45.47
2019-04-07T10:23:14.134Z,44.46
2019-04-07T10:24:14.169Z,44.84
2019-04-07T10:25:14.398Z,44.64
2019-04-07T10:26:14.527Z,45.14
2019-04-07T10:27:14.586Z,44.84
2019-04-07T10:28:13.873Z,44.84
2019-04-07T10:29:13.769Z,44.96
2019-04-07T10:30:14.573Z,45.37
2019-04-07T10:31:13.873Z,45.85
2019-04-07T10:32:13.700Z,45.67
2019-04-07T10:33:14.403Z,46.09
2019-04-07T10:34:13.739Z,45.08
2019-04-07T10:35:14.428Z,45.49
2019-04-07T10:36:13.753Z,46.07
2019-04-07T10:37:14.489Z,46.22
2019-04-07T10:38:14.177Z,47.38
2019-04-07T10:39:14.280Z,48.08
2019-04-07T10:40:19.769Z,48.06
2019-04-07T10:41:15.141Z,46.52
2019-04-07T10:42:13.783Z,45.89
2019-04-07T10:43:13.810Z,46.92
2019-04-07T10:44:13.961Z,47.78
2019-04-07T10:45:13.621Z,48.28
2019-04-07T10:46:14.676Z,48.18
2019-04-07T10:47:13.562Z,47.96
2019-04-07T10:48:13.546Z,47.74
2019-04-07T10:49:13.524Z,47.83
2019-04-07T10:50:14.262Z,46.80
2019-04-07T10:51:13.579Z,46.40
2019-04-07T10:52:13.486Z,47.67
2019-04-07T10:53:14.231Z,48.51
2019-04-07T10:54:13.654Z,48.28
2019-04-07T10:55:14.126Z,48.46
2019-04-07T10:56:14.213Z,47.94
2019-04-07T10:57:13.420Z,47.31
2019-04-07T10:58:14.066Z,46.91
2019-04-07T10:59:13.652Z,47.31
2019-04-07T11:00:13.524Z,47.19
2019-04-07T11:01:13.475Z,45.85
2019-04-07T11:02:13.539Z,45.75
2019-04-07T11:03:13.352Z,44.51
2019-04-07T11:04:13.837Z,44.84
2019-04-07T11:05:14.117Z,44.92
2019-04-07T11:06:13.824Z,45.04
2019-04-07T11:07:14.041Z,45.16
2019-04-07T11:08:13.832Z,46.09
2019-04-07T11:09:13.313Z,46.72
2019-04-07T11:10:13.298Z,47.13
2019-04-07T11:11:14.534Z,47.86
2019-04-07T11:12:13.292Z,48.06
2019-04-07T11:13:14.631Z,47.45
2019-04-07T11:14:13.400Z,47.78
2019-04-07T11:15:13.782Z,48.51
2019-04-07T11:16:13.222Z,48.51
2019-04-07T11:17:13.934Z,48.91
2019-04-07T11:18:13.646Z,48.71
2019-04-07T11:19:13.182Z,48.79
2019-04-07T11:20:13.324Z,49.90
2019-04-07T11:21:13.156Z,48.39
2019-04-07T11:22:14.401Z,48.51
2019-04-07T11:23:13.192Z,49.02
2019-04-07T11:24:13.918Z,49.30
2019-04-07T11:25:13.118Z,48.97
2019-04-07T11:26:13.465Z,48.26
2019-04-07T11:27:13.168Z,47.53
2019-04-07T11:28:13.374Z,48.02
2019-04-07T11:29:13.307Z,48.52
2019-04-07T11:30:13.313Z,48.32
2019-04-07T11:31:13.052Z,47.51
2019-04-07T11:32:13.904Z,47.20
2019-04-07T11:33:13.128Z,47.43
2019-04-07T11:34:13.026Z,47.83
2019-04-07T11:35:13.705Z,47.74
2019-04-07T11:36:13.805Z,48.85
2019-04-07T11:37:14.217Z,48.95
2019-04-07T11:38:13.611Z,48.74
2019-04-07T11:39:13.469Z,48.42
2019-04-07T11:40:12.976Z,48.62
2019-04-07T11:41:12.944Z,48.52
2019-04-07T11:42:13.123Z,48.11
2019-04-07T11:43:13.090Z,47.51
2019-04-07T11:44:12.985Z,48.02
2019-04-07T11:45:13.802Z,47.71
2019-04-07T11:46:12.888Z,48.34
2019-04-07T11:47:12.885Z,49.66
2019-04-07T11:48:12.876Z,49.55
2019-04-07T11:49:13.504Z,49.66
2019-04-07T11:50:13.489Z,49.15
2019-04-07T11:51:13.029Z,48.93
2019-04-07T11:52:13.584Z,49.73
2019-04-07T11:53:13.442Z,48.93
2019-04-07T11:54:13.004Z,48.52
2019-04-07T11:55:12.793Z,48.44
2019-04-07T11:56:13.263Z,48.77
2019-04-07T11:57:13.591Z,49.38
2019-04-07T11:58:16.552Z,50.09
2019-04-07T11:59:14.699Z,50.29
2019-04-07T12:00:12.849Z,49.68
2019-04-07T12:01:14.466Z,49.90
2019-04-07T12:02:12.748Z,50.71
2019-04-07T12:03:12.716Z,51.25
2019-04-07T12:04:15.196Z,51.86
2019-04-07T12:05:12.708Z,51.35
2019-04-07T12:06:14.291Z,50.82
2019-04-07T12:07:12.816Z,50.84
2019-04-07T12:08:12.660Z,51.45
2019-04-07T12:09:13.099Z,52.26
2019-04-07T12:10:12.641Z,52.03
2019-04-07T12:11:14.511Z,51.02
2019-04-07T12:12:12.697Z,51.73
2019-04-07T12:13:13.282Z,51.12
2019-04-07T12:14:16.337Z,50.61
2019-04-07T12:15:13.080Z,50.84
2019-04-07T12:16:13.329Z,51.86
2019-04-07T12:17:13.849Z,51.86
2019-04-07T12:18:16.816Z,51.93
2019-04-07T12:19:13.857Z,51.42
2019-04-07T12:20:12.546Z,51.42
2019-04-07T12:21:19.357Z,51.09
2019-04-07T12:22:14.316Z,51.50
2019-04-07T12:23:16.266Z,51.68
2019-04-07T12:24:13.750Z,50.06
2019-04-07T12:25:12.557Z,50.46
2019-04-07T12:26:12.861Z,50.37
2019-04-07T12:27:13.644Z,50.26
2019-04-07T12:28:15.891Z,49.96
2019-04-07T12:29:14.208Z,50.04
2019-04-07T12:30:13.190Z,49.53
2019-04-07T12:31:12.453Z,48.44
2019-04-07T12:32:12.456Z,49.05
2019-04-07T12:33:12.384Z,49.07
2019-04-07T12:34:14.383Z,49.88
2019-04-07T12:35:13.034Z,50.11
2019-04-07T12:36:12.960Z,51.02
2019-04-07T12:37:12.502Z,50.89
2019-04-07T12:38:12.530Z,51.09
2019-04-07T12:39:16.204Z,50.69
2019-04-07T12:40:13.331Z,50.87
2019-04-07T12:41:19.097Z,50.16
2019-04-07T12:42:13.492Z,49.53
2019-04-07T12:43:14.030Z,49.93
2019-04-07T12:44:12.601Z,48.72
2019-04-07T12:45:12.428Z,49.05
2019-04-07T12:46:12.352Z,49.88
2019-04-07T12:47:12.404Z,50.82
2019-04-07T12:48:12.235Z,49.60
2019-04-07T12:49:12.248Z,50.11
2019-04-07T12:50:15.479Z,51.32
2019-04-07T12:51:12.385Z,51.22
2019-04-07T12:52:12.788Z,50.74